Detall de PIREP

Printer-friendly versionPDF version

[2013/09/28 09:14:00]
Flight IATA:CT2312
Pilot Number:012
Company ICAO:CAT
Aircraft Type:B738/F
PAX:160
Departing Airport: LIEA
Destination Airport: LIBP
Alternate Airport:LIRF
Online: VATSIM
Route:MINKA UL5 ATRUP
Flight Level:F290
No Slew and time accel
No pause
Crash detect
Detect pilot in Cockpit between each 30 and 45 minutes
09:14 Zero fuel Weight: 135192 Lbs, Fuel Weight: 11735 Lbs
09:14 VATSIM:LIEA 280850Z 02004KT 340V060 CAVOK 28/13 Q1012
09:14 VATSIM:LIBP 280850Z VRB02KT CAVOK 25/16 Q1014
09:14 VOICE CATALONIAN
09:24 Parking Brakes off
09:29 Take-off
09:29 Take off Weight: 146227 Lbs
09:29 Wind: 027º @ 004 Knots Heading: 203º
09:29 POS N40º 37´ 28´´ E008º 17´ 11´´
09:29 Gear Up: 167 Knots
09:29 Flaps:3 at 167 Knots
09:30 Flaps:1 at 200 Knots
09:30 Flaps:0 at 201 Knots
09:44 Wind:268º@032 Knots Heading: 067º Ground Speed: 493 Knots Altitude 27066 ft
09:45 TOC
09:45 Fuel Weight: 7632 Lb
09:59 Wind:291º@023 Knots Heading: 059º Ground Speed: 491 Knots Altitude 29051 ft
09:59 TOD
09:59 Fuel Weight: 6138 Lb
10:14 Wind:286º@002 Knots Heading: 076º Ground Speed: 261 Knots Altitude 4189 ft
10:14 Flaps:1 at 226 Knots
10:15 Flaps:2 at 220 Knots
10:16 Flaps:3 at 195 Knots
10:17 Flaps:4 at 188 Knots
10:18 Gear Down: 170 Knots
10:18 Flaps:5 at 165 Knots
10:18 Flaps:6 at 153 Knots
10:18 Flaps:7 at 148 Knots
10:18 Flaps:8 at 140 Knots
10:20 TouchDown:Rate -143 ft/min Speed: 135 Knots
10:21 VATSIM:LIBP 280850Z VRB02KT CAVOK 25/16 Q1014
10:21 Land
10:21 Wind:357º@001 Knots
10:21 Heading: 217º
10:21 Flight Duration: 00:52
10:21 Landing Weight: 140285 Lbs
10:21 POS N42º 25´ 38´´ E014º 10´ 43´´
10:24 Parking brakes on
10:24 Block to Block Duration: 01:00
10:24 Final Fuel: 4861 Lbls
10:24 Spent Fuel: 6873 Lbls
10:24 Flight Length: 329 NM
10:24 TOD Land Length: 109 NM

Exportar CSV

Powered by Drupal - Modified by Danger4k